Main page
Satellite images 15-day forecastsClimateMarine weather Cyclones Lightning AirportsFAQ Newsletter About
Weather : Europe Africa North America South America Asia Australia-Oceania Others
Languages Contact

Istanbul Sabiha Gökçen, Turkey

latitude: 40-53-55N, longitude: 029-18-33E, elevation: 95 m


METAR: LTFJ 250250Z 04010KT 9999 BKN030 BKN090 16/15 Q1008 NOSIG
TAF: LTFJ 242240Z 2500/2524 03012KT 9999 BKN030 BKN090 BECMG 2500/2502 -SHRA

Time: 06:25 (03:25 UTC)

Current weather observation

The report was made 35 minutes ago, at 02:50 UTC
Wind 10 kt from the Northeast
Temperature 16°C
Humidity 94%
Pressure 1008 hPa
Visibility 10 km or more
Broken clouds at a height of 3000 ft
Broken clouds at a height of 9000 ft

Change units

Forecast

The report was made 4 hours and 45 minutes ago, at 22:40 UTC
Forecast valid from 25 at 00 UTC to 25 at 24 UTC
Wind 12 kt from the North/Northeast
Visibility 10 km or more
Broken clouds at a height of 3000 ft
Broken clouds at a height of 9000 ft
Becoming
from 25 at 00 UTC to 25 at 02 UTC
light rain showers
The information on this site is subject to a disclaimer
Weather : Europe Africa North America South America Asia Australia-Oceania Others
Satellite images 15-day forecastsClimateMarine weather Cyclones Lightning AirportsFAQ Languages Contact Newsletter About